Time;durP1;ratioP1;P1;durP2;ratioP2;P2;SDS_P1;SDS_P2;PMS_P1;PMS_P2;Temp;Humidity;BMP_temperature;BMP_pressure;BME280_temperature;BME280_humidity;BME280_pressure;Samples;Min_cycle;Max_cycle;Signal;HPM_P1;HPM_P2
2023/09/01 07:17:21;;;;;;;2.05;1.20;;;;;;;15.08;100.00;96504.44;2100580;27;20561;-67
2023/09/01 07:19:31;;;;;;;2.80;0.95;;;;;;;15.20;100.00;96515.97;2096862;27;21077;-67
2023/09/01 07:20:33;;;;;;;2.70;1.25;;;;;;;15.17;100.00;96495.97;2096162;28;20222;-67
2023/09/01 07:21:34;;;;;;;3.22;1.35;;;;;;;15.49;100.00;96508.75;2095824;28;20244;-67
2023/09/01 07:22:36;;;;;;;3.15;1.17;;;;;;;15.59;100.00;96514.28;2094355;28;20195;-67
2023/09/01 07:23:38;;;;;;;3.15;1.20;;;;;;;15.66;100.00;96514.69;2083121;28;20201;-67
2023/09/01 07:24:39;;;;;;;1.83;1.02;;;;;;;15.75;100.00;96516.69;2081620;28;20204;-67
2023/09/01 07:25:44;;;;;;;2.55;1.20;;;;;;;15.80;100.00;96500.59;2080666;28;20201;-67
2023/09/01 07:26:45;;;;;;;1.40;0.80;;;;;;;16.23;100.00;96518.75;2082744;28;20208;-67
2023/09/01 07:27:47;;;;;;;2.55;0.90;;;;;;;16.36;100.00;96512.63;2078020;28;20723;-68
2023/09/01 07:28:49;;;;;;;2.40;0.95;;;;;;;16.51;100.00;96519.44;2076617;28;20251;-67
2023/09/01 07:29:52;;;;;;;3.65;1.25;;;;;;;16.44;100.00;96526.09;2073992;28;20204;-67
2023/09/01 07:30:54;;;;;;;1.83;0.98;;;;;;;16.38;100.00;96521.25;2072420;28;20259;-68
2023/09/01 07:31:55;;;;;;;2.00;0.80;;;;;;;16.62;100.00;96521.31;2072674;28;20289;-68
2023/09/01 07:32:56;;;;;;;2.30;1.02;;;;;;;16.63;100.00;96529.13;2073353;28;20725;-67
2023/09/01 07:33:59;;;;;;;1.80;0.98;;;;;;;16.91;98.65;96524.53;2070730;28;20207;-67
2023/09/01 07:35:03;;;;;;;1.60;0.90;;;;;;;17.14;97.61;96522.88;2072090;28;20205;-68
2023/09/01 07:36:04;;;;;;;1.60;0.90;;;;;;;17.12;98.11;96519.47;2074042;28;20209;-68
2023/09/01 07:37:07;;;;;;;1.83;1.00;;;;;;;16.88;98.43;96508.91;2071787;28;20217;-68
2023/09/01 07:38:08;;;;;;;1.42;0.73;;;;;;;16.81;99.46;96521.69;2084837;28;20250;-68
2023/09/01 07:39:10;;;;;;;1.60;0.88;;;;;;;16.75;100.00;96516.84;2089294;28;20224;-68
2023/09/01 07:40:13;;;;;;;2.22;0.80;;;;;;;16.61;100.00;96520.47;2086512;28;20208;-68
2023/09/01 07:41:15;;;;;;;1.95;1.00;;;;;;;16.57;100.00;96531.31;2087223;28;20623;-68
2023/09/01 07:42:17;;;;;;;1.33;0.75;;;;;;;16.52;100.00;96525.53;2089909;28;20241;-67
2023/09/01 07:43:19;;;;;;;1.50;0.70;;;;;;;16.74;100.00;96527.50;2091266;28;20219;-67
2023/09/01 07:44:21;;;;;;;2.40;1.00;;;;;;;16.68;100.00;96531.41;2090580;28;20240;-68
2023/09/01 07:45:22;;;;;;;2.85;0.90;;;;;;;16.77;100.00;96524.66;2089771;28;20204;-68
2023/09/01 07:46:24;;;;;;;1.55;0.80;;;;;;;16.86;100.00;96526.63;2090489;28;20223;-68
2023/09/01 07:47:26;;;;;;;1.55;0.80;;;;;;;16.94;100.00;96528.75;2089734;28;20295;-68
2023/09/01 07:48:27;;;;;;;1.50;0.80;;;;;;;16.84;100.00;96527.69;2090236;28;20262;-68
2023/09/01 07:49:29;;;;;;;2.10;0.80;;;;;;;16.72;100.00;96535.53;2088686;28;20196;-68
2023/09/01 07:50:32;;;;;;;5.35;1.10;;;;;;;16.68;100.00;96528.78;2091353;28;20192;-68
2023/09/01 07:51:34;;;;;;;2.40;0.80;;;;;;;16.60;100.00;96533.78;2087532;28;20211;-68
2023/09/01 07:52:36;;;;;;;3.83;0.80;;;;;;;16.70;100.00;96536.59;2086691;28;20746;-68
2023/09/01 07:53:38;;;;;;;2.22;1.00;;;;;;;16.67;100.00;96528.91;2079709;28;20196;-68
2023/09/01 07:54:39;;;;;;;3.95;0.90;;;;;;;16.59;100.00;96539.97;2081354;28;20284;-69
2023/09/01 07:55:41;;;;;;;1.83;0.90;;;;;;;16.68;100.00;96547.22;2089973;28;20196;-68
2023/09/01 07:56:42;;;;;;;1.83;0.80;;;;;;;16.59;100.00;96540.81;2090649;28;20249;-68
2023/09/01 07:57:44;;;;;;;4.60;1.38;;;;;;;16.58;100.00;96539.16;2090165;28;20283;-71
2023/09/01 07:58:45;;;;;;;1.70;0.70;;;;;;;16.61;100.00;96538.09;2093470;28;20192;-70
2023/09/01 07:59:47;;;;;;;2.63;0.98;;;;;;;16.68;100.00;96536.69;2092462;28;20677;-70
2023/09/01 08:00:48;;;;;;;2.55;1.00;;;;;;;16.74;100.00;96538.88;2092027;28;20245;-71
2023/09/01 08:01:52;;;;;;;1.50;0.90;;;;;;;16.85;100.00;96548.69;2091634;28;20207;-71
2023/09/01 08:02:53;;;;;;;1.80;0.88;;;;;;;16.83;100.00;96537.38;2089675;28;20224;-70
2023/09/01 08:03:59;;;;;;;2.72;0.90;;;;;;;16.86;100.00;96546.88;2090010;28;20196;-70
2023/09/01 08:05:03;;;;;;;4.80;0.98;;;;;;;16.96;100.00;96547.94;2091453;28;20836;-70
2023/09/01 08:06:05;;;;;;;2.63;0.80;;;;;;;17.00;100.00;96541.50;2089495;28;20287;-70
2023/09/01 08:07:06;;;;;;;1.83;0.88;;;;;;;17.02;100.00;96544.03;2089616;28;20238;-71
2023/09/01 08:08:08;;;;;;;2.13;0.98;;;;;;;16.98;98.57;96546.88;2091757;28;21076;-70
2023/09/01 08:09:09;;;;;;;1.98;0.80;;;;;;;17.13;99.90;96547.56;2090931;28;20205;-70
2023/09/01 08:10:10;;;;;;;1.58;0.70;;;;;;;17.26;98.75;96546.66;2092328;28;20200;-71
2023/09/01 08:11:12;;;;;;;1.95;0.90;;;;;;;17.37;98.04;96548.50;2089833;28;20195;-70
2023/09/01 08:12:13;;;;;;;1.50;0.80;;;;;;;17.52;97.35;96550.03;2091574;28;20195;-70
2023/09/01 08:13:15;;;;;;;1.40;0.85;;;;;;;17.70;96.65;96541.66;2091231;28;20217;-70
2023/09/01 08:14:16;;;;;;;3.25;0.90;;;;;;;17.65;96.25;96544.66;2088980;28;20192;-70
2023/09/01 08:15:18;;;;;;;2.03;0.77;;;;;;;17.84;96.62;96549.41;2090876;28;20200;-70
2023/09/01 08:16:20;;;;;;;1.65;0.93;;;;;;;17.71;96.72;96552.13;2089667;28;20203;-70
2023/09/01 08:17:22;;;;;;;1.35;0.70;;;;;;;17.67;95.66;96561.22;2089761;28;20196;-70
2023/09/01 08:18:23;;;;;;;2.08;0.90;;;;;;;17.63;95.60;96557.13;2089846;28;20902;-70
2023/09/01 08:19:25;;;;;;;1.50;0.77;;;;;;;17.67;95.54;96558.59;2092116;28;20503;-70
2023/09/01 08:20:27;;;;;;;2.30;0.90;;;;;;;17.71;94.40;96551.28;2092579;28;20188;-70
2023/09/01 08:21:30;;;;;;;2.35;0.80;;;;;;;17.66;95.52;96559.56;2092393;28;20219;-70
2023/09/01 08:22:31;;;;;;;1.52;0.80;;;;;;;17.72;94.98;96552.97;2091689;28;20203;-69
2023/09/01 08:23:33;;;;;;;1.85;0.80;;;;;;;17.70;95.58;96555.72;2089093;28;20196;-70
2023/09/01 08:24:35;;;;;;;2.10;0.70;;;;;;;17.84;95.44;96557.34;2091505;28;20632;-70
2023/09/01 08:25:37;;;;;;;4.20;0.73;;;;;;;17.90;94.52;96556.00;2090743;28;20306;-70
2023/09/01 08:26:38;;;;;;;1.70;0.80;;;;;;;17.99;95.36;96558.00;2091085;28;20207;-70
2023/09/01 08:27:39;;;;;;;1.38;0.80;;;;;;;18.02;94.27;96563.03;2090192;28;20599;-69
2023/09/01 08:28:41;;;;;;;1.92;0.80;;;;;;;17.93;94.04;96561.94;2088870;28;20195;-69
2023/09/01 08:29:42;;;;;;;2.92;1.13;;;;;;;17.90;94.95;96562.16;2088138;28;20185;-70
2023/09/01 08:30:45;;;;;;;2.10;0.90;;;;;;;18.02;95.24;96568.34;2084292;28;20212;-69
2023/09/01 08:31:47;;;;;;;2.67;0.90;;;;;;;18.01;93.04;96563.16;2085467;28;20648;-70
2023/09/01 08:32:48;;;;;;;1.50;0.70;;;;;;;18.15;92.77;96564.75;2084052;28;20354;-70
2023/09/01 08:33:50;;;;;;;1.65;0.70;;;;;;;18.14;91.91;96561.25;2082276;28;20615;-69
2023/09/01 08:34:51;;;;;;;1.75;0.70;;;;;;;18.28;91.83;96565.47;2074658;28;20248;-69
2023/09/01 08:35:53;;;;;;;1.48;0.80;;;;;;;18.31;92.00;96564.41;2075427;28;20525;-70
2023/09/01 08:36:54;;;;;;;1.10;0.70;;;;;;;18.46;92.57;96565.03;2084486;28;20212;-69
2023/09/01 08:37:56;;;;;;;1.35;0.75;;;;;;;18.36;91.58;96581.59;2085230;28;20269;-70
2023/09/01 08:38:57;;;;;;;1.60;0.88;;;;;;;18.23;91.33;96576.44;2085401;28;20372;-69
2023/09/01 08:39:59;;;;;;;1.58;0.88;;;;;;;18.19;90.54;96572.31;2082698;28;20274;-70
2023/09/01 08:41:02;;;;;;;1.30;0.70;;;;;;;18.32;91.06;96572.25;2083929;28;20238;-68
2023/09/01 08:42:04;;;;;;;1.23;0.70;;;;;;;18.46;91.02;96572.94;2075135;28;20304;-67
2023/09/01 08:43:08;;;;;;;1.42;0.70;;;;;;;18.47;90.74;96578.13;2075207;28;20284;-68
2023/09/01 08:44:11;;;;;;;1.10;0.60;;;;;;;18.66;90.65;96572.22;2085924;28;20200;-68
2023/09/01 08:45:14;;;;;;;1.85;0.77;;;;;;;18.74;89.98;96575.13;2085262;28;20200;-67
2023/09/01 08:46:21;;;;;;;2.50;0.75;;;;;;;18.67;89.53;96570.44;2084311;28;20197;-68
2023/09/01 08:47:25;;;;;;;2.25;0.90;;;;;;;18.69;89.78;96561.44;2085169;28;20200;-68
2023/09/01 08:48:27;;;;;;;1.42;0.70;;;;;;;19.01;88.99;96573.91;2082342;28;20204;-68
2023/09/01 08:49:28;;;;;;;3.05;0.70;;;;;;;19.03;87.39;96571.16;2086094;28;20200;-68
2023/09/01 08:50:30;;;;;;;2.58;0.70;;;;;;;18.98;88.53;96575.97;2086318;28;20672;-68
2023/09/01 08:51:32;;;;;;;1.35;0.70;;;;;;;18.97;88.69;96569.00;2085038;28;20196;-68
2023/09/01 08:52:35;;;;;;;1.65;0.88;;;;;;;18.87;88.30;96571.50;2083535;28;20200;-68
2023/09/01 08:53:39;;;;;;;2.50;0.70;;;;;;;18.98;88.53;96568.88;2086220;28;20196;-68
2023/09/01 08:54:41;;;;;;;1.30;0.50;;;;;;;19.35;87.25;96573.00;2086461;28;20200;-68
2023/09/01 08:55:43;;;;;;;1.10;0.60;;;;;;;19.38;84.91;96557.69;2085724;28;20241;-68
2023/09/01 08:56:45;;;;;;;1.20;0.60;;;;;;;19.14;86.47;96565.84;2083357;28;20204;-68
2023/09/01 08:57:48;;;;;;;1.50;0.70;;;;;;;19.18;87.60;96561.13;2085654;28;20754;-68
2023/09/01 08:58:50;;;;;;;1.17;0.60;;;;;;;18.91;84.21;96565.03;2083624;28;20570;-68
2023/09/01 08:59:52;;;;;;;1.00;0.50;;;;;;;19.14;86.09;96567.66;2083899;28;20720;-68
2023/09/01 09:00:54;;;;;;;1.35;0.70;;;;;;;19.17;86.08;96573.53;2082600;28;20246;-68
2023/09/01 09:01:56;;;;;;;1.10;0.50;;;;;;;19.07;85.94;96567.28;2084660;28;20201;-68
2023/09/01 09:02:57;;;;;;;1.10;0.55;;;;;;;19.28;86.21;96570.00;2085085;28;20233;-68
2023/09/01 09:04:08;;;;;;;1.10;0.60;;;;;;;19.48;87.11;96565.75;2085348;28;20196;-68
2023/09/01 09:05:13;;;;;;;1.63;0.73;;;;;;;19.63;86.02;96566.28;2084811;28;20280;-68
2023/09/01 09:06:16;;;;;;;4.50;0.65;;;;;;;19.21;85.97;96574.09;2085913;28;20291;-68
2023/09/01 09:07:20;;;;;;;1.30;0.60;;;;;;;18.97;86.76;96583.06;2082013;28;20205;-68
2023/09/01 09:08:22;;;;;;;4.07;0.60;;;;;;;18.75;86.88;96575.94;2082005;28;20299;-69
2023/09/01 09:09:23;;;;;;;1.85;0.70;;;;;;;18.65;87.34;96564.41;2074295;28;20197;-68
2023/09/01 09:10:33;;;;;;;2.78;0.70;;;;;;;18.72;87.65;96578.84;2076249;28;20186;-68
2023/09/01 09:11:35;;;;;;;1.13;0.60;;;;;;;18.71;87.47;96571.88;2086315;28;20594;-69
2023/09/01 09:12:39;;;;;;;1.80;0.68;;;;;;;18.59;87.83;96569.22;2083553;28;20265;-69
2023/09/01 09:13:40;;;;;;;2.60;0.70;;;;;;;18.72;88.83;96566.47;2084810;28;20188;-68
2023/09/01 09:14:49;;;;;;;1.20;0.60;;;;;;;18.74;88.42;96568.97;2083506;28;20232;-69
2023/09/01 09:16:04;;;;;;;1.10;0.60;;;;;;;19.05;87.58;96561.28;2084985;28;20200;-69
2023/09/01 09:17:06;;;;;;;2.38;0.60;;;;;;;18.97;87.29;96567.19;2085444;28;20204;-70
2023/09/01 09:18:08;;;;;;;2.38;0.70;;;;;;;18.92;87.77;96570.19;2082056;28;20758;-70
2023/09/01 09:19:12;;;;;;;1.10;0.60;;;;;;;18.56;87.85;96561.56;2087742;28;20702;-70
2023/09/01 09:20:17;;;;;;;1.30;0.60;;;;;;;18.53;88.49;96568.88;2083796;28;20215;-69
2023/09/01 09:21:25;;;;;;;6.10;0.70;;;;;;;18.47;89.34;96572.00;2084189;28;20205;-70
2023/09/01 09:22:26;;;;;;;1.45;0.85;;;;;;;18.28;88.70;96574.28;2084049;28;20196;-70
2023/09/01 09:23:43;;;;;;;1.10;0.60;;;;;;;18.22;91.20;96566.81;2076919;28;20248;-70
2023/09/01 09:24:45;;;;;;;1.20;0.65;;;;;;;18.15;90.12;96575.34;2083489;28;20225;-70
2023/09/01 09:25:49;;;;;;;1.50;0.60;;;;;;;17.99;90.11;96579.16;2083056;28;20701;-70
2023/09/01 09:26:57;;;;;;;1.10;0.60;;;;;;;17.89;91.04;96572.81;2083819;28;20531;-70
2023/09/01 09:28:00;;;;;;;1.02;0.60;;;;;;;17.87;91.81;96570.28;2082095;28;20231;-70
2023/09/01 09:29:06;;;;;;;1.20;0.60;;;;;;;17.86;92.33;96570.41;2084934;28;20193;-70
2023/09/01 09:30:08;;;;;;;2.75;0.60;;;;;;;17.92;92.42;96572.59;2084785;28;20197;-70
2023/09/01 09:31:10;;;;;;;2.00;0.70;;;;;;;17.90;93.25;96572.72;2075353;28;20209;-70
2023/09/01 09:32:15;;;;;;;1.50;0.80;;;;;;;17.88;92.38;96576.44;2076184;28;20255;-70
2023/09/01 09:33:26;;;;;;;1.88;0.70;;;;;;;17.77;92.71;96571.94;2077598;28;20252;-70
2023/09/01 09:34:28;;;;;;;1.40;0.68;;;;;;;17.81;92.78;96572.56;2076404;28;20197;-70
2023/09/01 09:35:29;;;;;;;1.65;0.60;;;;;;;17.77;92.92;96582.50;2084927;28;20283;-70
2023/09/01 09:36:37;;;;;;;1.40;0.70;;;;;;;17.75;92.74;96573.84;2082738;28;20295;-71
2023/09/01 09:37:41;;;;;;;1.33;0.70;;;;;;;17.74;92.92;96578.31;2083197;28;20235;-70
2023/09/01 09:38:46;;;;;;;1.40;0.70;;;;;;;17.73;93.27;96578.41;2086597;28;20196;-70
2023/09/01 09:39:47;;;;;;;1.67;0.77;;;;;;;17.63;92.76;96572.97;2077365;28;20193;-70
2023/09/01 09:40:59;;;;;;;2.63;0.70;;;;;;;17.61;93.70;96569.59;2076278;28;20206;-71
2023/09/01 09:42:01;;;;;;;1.75;0.80;;;;;;;17.65;94.16;96573.72;2085856;28;20208;-70
2023/09/01 09:43:02;;;;;;;2.50;0.80;;;;;;;17.73;93.97;96575.78;2084699;28;20224;-70
2023/09/01 09:44:04;;;;;;;2.08;1.00;;;;;;;17.68;93.91;96575.28;2073722;28;20259;-70
2023/09/01 09:45:31;;;;;;;1.55;0.70;;;;;;;17.68;93.60;96581.41;2074615;28;20194;-70
2023/09/01 09:46:40;;;;;;;1.25;0.70;;;;;;;17.69;93.38;96574.34;2084627;28;20632;-70
2023/09/01 09:47:43;;;;;;;1.30;0.63;;;;;;;17.70;93.46;96584.78;2085143;28;20291;-70
2023/09/01 09:48:44;;;;;;;2.20;0.80;;;;;;;17.69;92.88;96582.25;2087115;28;20766;-71
2023/09/01 09:51:47;;;;;;;2.08;0.77;;;;;;;17.66;92.49;96583.31;2083944;28;21092;-68
2023/09/01 09:52:53;;;;;;;1.45;0.75;;;;;;;17.64;92.79;96579.94;2079261;28;20240;-69
2023/09/01 09:53:57;;;;;;;2.05;0.70;;;;;;;17.61;92.91;96582.78;2071179;28;20204;-68
2023/09/01 09:55:03;;;;;;;2.20;0.85;;;;;;;17.64;92.42;96577.31;2067681;28;21021;-69
2023/09/01 09:56:30;;;;;;;1.52;0.80;;;;;;;17.64;92.22;96579.94;2071578;28;20197;-69
2023/09/01 09:57:34;;;;;;;2.38;0.73;;;;;;;17.70;91.97;96579.50;2072445;28;20288;-69
2023/09/01 09:58:40;;;;;;;1.40;0.80;;;;;;;17.73;92.24;96578.41;2074588;28;20194;-69
2023/09/01 09:59:48;;;;;;;5.63;0.95;;;;;;;17.80;91.99;96587.56;2071302;28;20205;-69
2023/09/01 10:00:58;;;;;;;2.08;0.93;;;;;;;17.87;91.23;96580.03;2072976;28;20243;-69
2023/09/01 10:02:11;;;;;;;1.83;0.80;;;;;;;17.94;91.09;96586.53;2073586;28;20209;-68
2023/09/01 10:03:14;;;;;;;1.75;1.00;;;;;;;18.04;90.73;96587.56;2071222;28;20237;-69
2023/09/01 10:04:17;;;;;;;2.75;1.25;;;;;;;18.12;90.92;96589.63;2072107;28;20193;-69
2023/09/01 10:05:22;;;;;;;2.45;1.00;;;;;;;18.08;90.14;96581.06;2071397;28;20666;-69
2023/09/01 10:06:24;;;;;;;2.15;0.93;;;;;;;18.10;89.40;96586.22;2069924;28;20230;-69
2023/09/01 10:07:25;;;;;;;1.50;0.80;;;;;;;18.10;89.25;96594.16;2072707;28;20194;-69
2023/09/01 10:08:28;;;;;;;2.70;0.90;;;;;;;18.02;87.54;96578.91;2072197;28;20242;-68
2023/09/01 10:09:32;;;;;;;2.75;0.95;;;;;;;17.98;88.80;96582.75;2075001;28;20233;-69
2023/09/01 10:10:34;;;;;;;2.20;1.08;;;;;;;18.13;89.49;96587.81;2074652;28;20198;-68
2023/09/01 10:11:36;;;;;;;2.80;0.88;;;;;;;18.13;87.75;96575.41;2074054;28;20268;-69
2023/09/01 10:12:38;;;;;;;1.58;0.90;;;;;;;18.18;87.92;96580.38;2073087;28;20194;-70
2023/09/01 10:13:44;;;;;;;2.05;0.90;;;;;;;18.21;88.49;96582.78;2068409;28;20264;-70
2023/09/01 10:14:48;;;;;;;3.35;1.05;;;;;;;18.23;87.89;96584.34;2070181;28;21114;-69
2023/09/01 10:15:51;;;;;;;2.33;1.00;;;;;;;18.28;87.12;96583.97;2065311;28;20198;-70
2023/09/01 10:16:52;;;;;;;7.32;1.10;;;;;;;18.22;87.75;96579.16;2071106;28;20805;-71
2023/09/01 10:17:58;;;;;;;5.05;1.52;;;;;;;18.16;86.65;96582.31;2070442;28;20222;-71
2023/09/01 10:18:59;;;;;;;3.40;1.40;;;;;;;18.25;86.76;96577.13;2068827;28;20316;-71
2023/09/01 10:20:06;;;;;;;2.80;1.35;;;;;;;18.22;85.52;96573.88;2074263;28;21208;-71
2023/09/01 10:21:08;;;;;;;5.00;1.40;;;;;;;18.19;86.28;96577.59;2073099;28;20688;-71
2023/09/01 10:22:09;;;;;;;4.78;1.58;;;;;;;18.16;84.54;96577.03;2080385;28;20242;-71
2023/09/01 10:23:12;;;;;;;7.93;1.30;;;;;;;18.20;85.44;96570.53;2080163;28;20264;-71
2023/09/01 10:24:16;;;;;;;3.75;1.02;;;;;;;18.28;85.25;96581.34;2072977;28;20695;-71
2023/09/01 10:25:19;;;;;;;2.40;1.10;;;;;;;18.23;85.29;96559.72;2073522;28;20198;-71
2023/09/01 10:26:25;;;;;;;2.20;0.98;;;;;;;18.36;85.28;96581.59;2070347;28;20822;-71
2023/09/01 10:27:27;;;;;;;2.22;1.02;;;;;;;18.28;85.60;96568.97;2073494;28;20205;-70
2023/09/01 10:28:28;;;;;;;5.20;1.38;;;;;;;18.32;85.14;96577.53;2068952;28;20190;-71
2023/09/01 10:29:34;;;;;;;3.00;1.25;;;;;;;18.36;85.35;96578.97;2070020;28;20203;-71
2023/09/01 10:30:44;;;;;;;2.75;1.10;;;;;;;18.35;84.88;96584.38;2067772;28;20205;-72
2023/09/01 10:31:47;;;;;;;2.67;1.23;;;;;;;18.34;84.28;96574.75;2073439;28;20661;-71
2023/09/01 10:32:49;;;;;;;2.38;1.10;;;;;;;18.33;84.25;96578.34;2068567;28;20309;-70
2023/09/01 10:34:04;;;;;;;5.85;1.35;;;;;;;18.41;84.91;96576.81;2068207;28;20864;-72
2023/09/01 10:35:06;;;;;;;2.30;1.00;;;;;;;18.44;85.29;96560.69;2069246;28;20201;-71
2023/09/01 10:36:14;;;;;;;2.30;1.00;;;;;;;18.48;84.06;96577.16;2075311;28;20205;-71
2023/09/01 10:37:31;;;;;;;2.13;1.00;;;;;;;18.55;84.47;96575.72;2071059;28;20201;-71
2023/09/01 10:38:32;;;;;;;2.30;1.10;;;;;;;18.50;84.85;96571.75;2080201;28;20797;-71
2023/09/01 10:39:34;;;;;;;5.07;1.23;;;;;;;18.58;84.71;96575.47;2078248;28;20260;-72
2023/09/01 10:40:42;;;;;;;4.10;1.20;;;;;;;18.61;85.17;96574.38;2073281;28;20810;-71
2023/09/01 10:41:58;;;;;;;3.83;1.27;;;;;;;18.52;84.45;96564.53;2071811;28;20324;-71
2023/09/01 10:42:59;;;;;;;3.35;1.15;;;;;;;18.57;85.34;96571.13;2070738;28;20229;-71
2023/09/01 10:44:03;;;;;;;2.70;1.17;;;;;;;18.57;84.28;96572.97;2070245;28;20241;-72
2023/09/01 10:45:05;;;;;;;2.50;1.10;;;;;;;18.57;84.41;96576.44;2067342;28;20305;-71
2023/09/01 10:46:14;;;;;;;3.22;1.00;;;;;;;18.53;84.35;96571.53;2071608;28;20259;-71
2023/09/01 10:47:38;;;;;;;5.65;1.40;;;;;;;18.55;84.21;96570.44;2067624;28;20202;-71
2023/09/01 10:48:48;;;;;;;4.00;1.15;;;;;;;18.59;84.18;96571.03;2065974;28;20226;-71
2023/09/01 10:49:57;;;;;;;3.60;1.45;;;;;;;18.63;84.23;96572.47;2070342;28;20198;-71
2023/09/01 10:51:18;;;;;;;3.13;1.17;;;;;;;18.85;85.06;96571.63;2071049;28;20277;-72
2023/09/01 10:52:20;;;;;;;7.20;1.40;;;;;;;18.84;84.62;96582.31;2071881;28;20210;-71
2023/09/01 10:53:29;;;;;;;7.30;1.05;;;;;;;18.70;84.44;96568.41;2066095;28;20232;-71
2023/09/01 10:54:30;;;;;;;3.58;1.10;;;;;;;18.87;84.52;96579.44;2066730;28;20241;-71
2023/09/01 10:55:34;;;;;;;3.13;1.20;;;;;;;18.88;83.92;96576.69;2067122;28;20206;-71
2023/09/01 10:56:55;;;;;;;7.07;1.30;;;;;;;18.98;83.67;96571.53;2068351;28;20264;-71
2023/09/01 10:58:07;;;;;;;2.60;1.23;;;;;;;18.92;83.59;96572.03;2069026;28;20329;-72
2023/09/01 10:59:09;;;;;;;3.83;1.25;;;;;;;19.07;83.44;96568.13;2071729;28;20207;-72
2023/09/01 11:00:26;;;;;;;2.50;1.10;;;;;;;19.28;83.46;96570.00;2076339;28;20857;-72
2023/09/01 11:01:41;;;;;;;3.47;1.10;;;;;;;19.42;82.43;96569.72;2073674;28;20193;-72
2023/09/01 11:02:43;;;;;;;4.28;1.30;;;;;;;19.45;81.98;96570.44;2071164;28;20297;-71
2023/09/01 11:03:45;;;;;;;3.95;1.48;;;;;;;19.46;81.54;96569.47;2064629;28;20216;-71
2023/09/01 11:04:47;;;;;;;2.40;1.23;;;;;;;19.47;80.95;96565.88;2066863;28;20202;-71
2023/09/01 11:05:54;;;;;;;2.58;1.00;;;;;;;19.48;81.29;96573.69;2066405;28;20195;-71
2023/09/01 11:06:59;;;;;;;1.85;1.08;;;;;;;19.53;80.65;96568.03;2065362;28;20282;-72
2023/09/01 11:08:15;;;;;;;3.45;1.67;;;;;;;19.70;80.27;96572.75;2063053;28;20762;-72
2023/09/01 11:09:17;;;;;;;4.60;1.00;;;;;;;20.01;78.53;96569.38;2063419;28;20202;-71
2023/09/01 11:10:25;;;;;;;2.20;1.10;;;;;;;20.45;77.51;96577.19;2067329;28;20240;-72
2023/09/01 11:11:28;;;;;;;4.32;1.23;;;;;;;20.53;77.62;96572.91;2068694;28;20214;-71
2023/09/01 11:12:31;;;;;;;2.03;0.88;;;;;;;20.60;77.53;96573.19;2065450;28;20829;-72
2023/09/01 11:13:33;;;;;;;3.00;1.35;;;;;;;20.65;78.12;96572.81;2064334;28;20204;-72
2023/09/01 11:14:51;;;;;;;5.30;1.20;;;;;;;20.63;77.91;96569.44;2064392;28;20198;-72
2023/09/01 11:15:53;;;;;;;2.00;1.10;;;;;;;20.41;77.58;96575.78;2068297;28;20201;-71
2023/09/01 11:16:54;;;;;;;2.15;0.93;;;;;;;20.23;77.16;96571.06;2068092;28;20250;-71
2023/09/01 11:17:56;;;;;;;2.72;1.10;;;;;;;20.31;77.12;96573.06;2064879;28;20230;-71
2023/09/01 11:19:01;;;;;;;2.92;1.00;;;;;;;20.22;77.62;96572.03;2064529;28;20190;-71
2023/09/01 11:20:05;;;;;;;2.10;1.00;;;;;;;20.25;77.84;96568.28;2066249;28;20417;-72
2023/09/01 11:21:08;;;;;;;2.08;1.10;;;;;;;20.51;77.99;96566.03;2065015;28;20646;-72
2023/09/01 11:22:09;;;;;;;7.22;1.25;;;;;;;20.65;77.66;96564.84;2065956;28;20191;-72
2023/09/01 11:23:11;;;;;;;2.28;1.20;;;;;;;20.88;77.29;96569.00;2065985;28;20217;-72
2023/09/01 11:24:13;;;;;;;2.85;1.13;;;;;;;21.15;76.52;96562.25;2065319;28;20780;-72
2023/09/01 11:25:16;;;;;;;1.85;1.38;;;;;;;21.56;74.50;96564.00;2061109;28;20198;-69
2023/09/01 11:26:18;;;;;;;5.25;1.00;;;;;;;21.82;74.17;96570.41;2062401;28;20292;-69
2023/09/01 11:27:20;;;;;;;4.13;1.40;;;;;;;21.43;73.64;96565.06;2061144;28;20535;-69
2023/09/01 11:28:22;;;;;;;1.60;0.90;;;;;;;21.45;74.61;96567.59;2062381;28;20272;-69
2023/09/01 11:29:23;;;;;;;2.50;0.93;;;;;;;21.89;72.60;96565.41;2072428;28;20865;-69
2023/09/01 11:30:25;;;;;;;5.15;1.10;;;;;;;22.06;71.76;96558.50;2071889;28;20363;-69
2023/09/01 11:31:47;;;;;;;2.25;1.00;;;;;;;22.16;71.78;96569.13;2064933;28;20303;-69
2023/09/01 11:32:50;;;;;;;3.33;1.00;;;;;;;21.96;72.10;96557.69;2067874;28;20226;-69
2023/09/01 11:33:53;;;;;;;2.10;1.05;;;;;;;22.10;70.80;96567.03;2068137;28;20191;-69
2023/09/01 11:34:55;;;;;;;6.10;1.50;;;;;;;22.46;69.97;96560.13;2066607;28;20552;-68
2023/09/01 11:36:07;;;;;;;2.40;1.00;;;;;;;22.48;69.71;96558.16;2068050;28;20202;-69
2023/09/01 11:37:16;;;;;;;3.67;1.08;;;;;;;22.67;70.29;96553.75;2064402;28;20607;-69
2023/09/01 11:38:33;;;;;;;2.45;1.15;;;;;;;22.11;71.56;96550.13;2045195;28;20604;-69
2023/09/01 11:39:34;;;;;;;2.10;0.90;;;;;;;22.15;71.18;96554.16;2063337;28;20205;-69
2023/09/01 11:40:36;;;;;;;3.08;1.10;;;;;;;22.00;72.63;96549.31;2064468;28;20232;-69
2023/09/01 11:41:40;;;;;;;4.18;1.10;;;;;;;22.23;72.36;96550.78;2067852;28;20295;-69
2023/09/01 11:42:43;;;;;;;2.15;1.00;;;;;;;22.41;70.79;96553.56;2066213;28;20205;-69
2023/09/01 11:43:45;;;;;;;9.02;5.35;;;;;;;22.11;71.83;96558.09;2066455;28;20217;-68
2023/09/01 11:44:48;;;;;;;5.85;3.35;;;;;;;21.87;72.27;96551.41;2067701;28;20255;-67
2023/09/01 11:45:50;;;;;;;2.55;1.17;;;;;;;21.62;73.32;96548.34;2067237;28;20201;-66
2023/09/01 11:46:52;;;;;;;3.42;1.40;;;;;;;21.58;73.45;96557.56;2068563;28;20546;-67
2023/09/01 11:47:54;;;;;;;2.50;1.10;;;;;;;21.27;72.49;96547.03;2067396;28;20799;-67
2023/09/01 11:48:57;;;;;;;2.10;1.10;;;;;;;21.15;74.28;96548.13;2066418;28;20209;-67
2023/09/01 11:50:00;;;;;;;2.72;1.05;;;;;;;21.12;73.67;96561.69;2065112;28;20202;-67
2023/09/01 11:51:03;;;;;;;2.95;1.00;;;;;;;21.00;73.71;96556.47;2062464;28;20289;-68
2023/09/01 11:52:05;;;;;;;3.08;1.00;;;;;;;20.86;74.23;96552.38;2068715;28;20206;-68
2023/09/01 11:53:07;;;;;;;1.90;0.90;;;;;;;20.87;74.65;96545.25;2060801;28;20313;-68
2023/09/01 11:54:09;;;;;;;2.00;1.10;;;;;;;21.48;73.28;96541.59;2062321;28;20294;-68
2023/09/01 11:55:10;;;;;;;4.63;0.90;;;;;;;21.97;71.07;96548.75;2063855;28;20270;-68
2023/09/01 11:56:20;;;;;;;1.70;0.90;;;;;;;22.11;69.95;96550.94;2063951;28;20206;-68
2023/09/01 11:57:23;;;;;;;4.32;1.20;;;;;;;22.50;70.30;96545.56;2064862;28;20206;-68
2023/09/01 11:58:54;;;;;;;4.07;1.10;;;;;;;22.49;69.90;96538.56;2064037;28;20226;-68
2023/09/01 11:59:56;;;;;;;3.95;1.55;;;;;;;22.41;69.78;96537.59;2067192;28;20194;-68
2023/09/01 12:01:14;;;;;;;4.95;1.00;;;;;;;22.31;69.62;96537.63;2065741;28;20284;-67
2023/09/01 12:02:17;;;;;;;3.60;1.10;;;;;;;21.92;70.85;96543.00;2063544;28;20248;-67
2023/09/01 12:03:22;;;;;;;2.92;1.10;;;;;;;21.72;71.55;96532.38;2065887;28;20222;-67
2023/09/01 12:04:24;;;;;;;2.10;1.10;;;;;;;21.73;71.65;96539.38;2062413;28;20215;-67
2023/09/01 12:05:36;;;;;;;3.75;1.00;;;;;;;21.63;71.95;96539.38;2067245;28;20205;-66
2023/09/01 12:06:46;;;;;;;4.68;0.95;;;;;;;21.55;71.88;96539.25;2065946;28;20846;-68
2023/09/01 12:07:51;;;;;;;3.67;1.17;;;;;;;21.64;71.05;96542.91;2064282;28;20230;-67
2023/09/01 12:09:08;;;;;;;3.28;1.10;;;;;;;21.43;71.62;96541.16;2065131;28;20233;-68
2023/09/01 12:10:21;;;;;;;5.28;1.23;;;;;;;21.40;71.99;96538.78;2066960;28;20265;-68
2023/09/01 12:11:23;;;;;;;2.63;1.15;;;;;;;21.58;72.05;96538.13;2061466;28;20257;-68
2023/09/01 12:12:36;;;;;;;3.10;1.20;;;;;;;21.56;72.16;96529.47;2063896;28;20236;-68
2023/09/01 12:13:38;;;;;;;7.68;1.00;;;;;;;21.56;72.91;96540.09;2062430;28;20230;-68
2023/09/01 12:14:40;;;;;;;3.20;1.48;;;;;;;21.34;72.68;96534.88;2064655;28;20230;-68
2023/09/01 12:15:56;;;;;;;4.95;1.38;;;;;;;21.31;73.16;96548.41;2066395;28;20302;-68
2023/09/01 12:16:59;;;;;;;3.00;1.40;;;;;;;21.49;72.48;96540.59;2064640;28;20857;-68
2023/09/01 12:18:29;;;;;;;1.75;0.90;;;;;;;21.60;73.16;96541.47;2062614;28;20221;-68
2023/09/01 12:19:45;;;;;;;2.25;1.13;;;;;;;22.60;71.08;96544.66;2065871;28;20293;-68
2023/09/01 12:20:48;;;;;;;3.80;1.20;;;;;;;23.92;67.73;96540.78;2064040;28;20673;-68
2023/09/01 12:21:51;;;;;;;2.25;0.95;;;;;;;23.12;68.77;96546.78;2067856;28;20197;-68
2023/09/01 12:22:53;;;;;;;2.58;1.02;;;;;;;22.80;70.34;96548.09;2066973;28;20221;-68